<?xml version="1.0" encoding="UTF-8" standalone="no" ?>
<gpx xmlns="http://www.topografix.com/GPX/1/1" xmlns:xsi="http://www.w3.org/2001/XMLSchema-instance" xsi:schemaLocation="http://www.topografix.com/GPX/1/1 http://www.topografix.com/GPX/1/1/gpx.xsd" version="1.1" creator="VisuGPX - https://www.visugpx.com">
  <metadata>
    <name>Balade</name>
    <desc><![CDATA[essai de transfer de tracé en itinéraire]]></desc>
  </metadata>
  <trk>
    <name><![CDATA[Tracé actuel: 02 AVR 2013 06:06]]></name>
    <trkseg>
      <trkpt lat="49.07512" lon="7.13533">
        <ele>261.62</ele>
        <time>2013-04-02T04:06:23Z</time>
      </trkpt>
      <trkpt lat="49.07523" lon="7.13539">
        <ele>260.65</ele>
        <time>2013-04-02T04:06:45Z</time>
      </trkpt>
      <trkpt lat="49.07527" lon="7.1354">
        <ele>259.69</ele>
        <time>2013-04-02T04:07:02Z</time>
      </trkpt>
      <trkpt lat="49.07524" lon="7.13538">
        <ele>255.85</ele>
        <time>2013-04-02T04:07:08Z</time>
      </trkpt>
      <trkpt lat="49.07519" lon="7.13537">
        <ele>250.56</ele>
        <time>2013-04-02T04:07:13Z</time>
      </trkpt>
      <trkpt lat="49.07515" lon="7.13536">
        <ele>249.12</ele>
        <time>2013-04-02T04:07:16Z</time>
      </trkpt>
      <trkpt lat="49.07512" lon="7.13537">
        <ele>245.27</ele>
        <time>2013-04-02T04:07:19Z</time>
      </trkpt>
      <trkpt lat="49.07504" lon="7.13543">
        <ele>241.43</ele>
        <time>2013-04-02T04:07:24Z</time>
      </trkpt>
      <trkpt lat="49.07502" lon="7.13545">
        <ele>238.06</ele>
        <time>2013-04-02T04:07:29Z</time>
      </trkpt>
      <trkpt lat="49.07503" lon="7.13545">
        <ele>236.62</ele>
        <time>2013-04-02T04:07:31Z</time>
      </trkpt>
      <trkpt lat="49.07503" lon="7.13545">
        <ele>234.22</ele>
        <time>2013-04-02T04:07:36Z</time>
      </trkpt>
      <trkpt lat="49.07502" lon="7.13546">
        <ele>232.3</ele>
        <time>2013-04-02T04:07:39Z</time>
      </trkpt>
      <trkpt lat="49.075" lon="7.1356">
        <ele>229.41</ele>
        <time>2013-04-02T04:07:48Z</time>
      </trkpt>
      <trkpt lat="49.07499" lon="7.13579">
        <ele>226.05</ele>
        <time>2013-04-02T04:08:04Z</time>
      </trkpt>
      <trkpt lat="49.07497" lon="7.13595">
        <ele>224.12</ele>
        <time>2013-04-02T04:08:20Z</time>
      </trkpt>
      <trkpt lat="49.07493" lon="7.13618">
        <ele>221.72</ele>
        <time>2013-04-02T04:08:41Z</time>
      </trkpt>
      <trkpt lat="49.07492" lon="7.13625">
        <ele>221.72</ele>
        <time>2013-04-02T04:09:00Z</time>
      </trkpt>
      <trkpt lat="49.07483" lon="7.13641">
        <ele>220.28</ele>
        <time>2013-04-02T04:09:21Z</time>
      </trkpt>
      <trkpt lat="49.07475" lon="7.13651">
        <ele>217.4</ele>
        <time>2013-04-02T04:09:40Z</time>
      </trkpt>
      <trkpt lat="49.07468" lon="7.13654">
        <ele>217.4</ele>
        <time>2013-04-02T04:10:01Z</time>
      </trkpt>
      <trkpt lat="49.07483" lon="7.13637">
        <ele>219.32</ele>
        <time>2013-04-02T04:10:32Z</time>
      </trkpt>
      <trkpt lat="49.07484" lon="7.13636">
        <ele>219.8</ele>
        <time>2013-04-02T04:10:34Z</time>
      </trkpt>
      <trkpt lat="49.07487" lon="7.13626">
        <ele>220.76</ele>
        <time>2013-04-02T04:10:40Z</time>
      </trkpt>
      <trkpt lat="49.07492" lon="7.13589">
        <ele>221.72</ele>
        <time>2013-04-02T04:11:04Z</time>
      </trkpt>
      <trkpt lat="49.07495" lon="7.13577">
        <ele>222.68</ele>
        <time>2013-04-02T04:11:12Z</time>
      </trkpt>
      <trkpt lat="49.07499" lon="7.13548">
        <ele>222.2</ele>
        <time>2013-04-02T04:11:35Z</time>
      </trkpt>
      <trkpt lat="49.07498" lon="7.13548">
        <ele>222.2</ele>
        <time>2013-04-02T04:11:36Z</time>
      </trkpt>
      <trkpt lat="49.07494" lon="7.13543">
        <ele>222.2</ele>
        <time>2013-04-02T04:12:00Z</time>
      </trkpt>
    </trkseg>
  </trk>
</gpx>